createdAt,value
2022-07-25T00:02:07.610Z,10.82
2022-07-25T00:04:35.873Z,11.35
2022-07-25T00:07:03.191Z,14.20
2022-07-25T00:09:30.017Z,14.40
2022-07-25T00:11:56.811Z,10.48
2022-07-25T00:14:23.633Z,11.52
2022-07-25T00:16:50.759Z,13.82
2022-07-25T00:19:18.238Z,11.73
2022-07-25T00:21:45.093Z,12.63
2022-07-25T00:24:11.931Z,11.98
2022-07-25T00:26:40.542Z,12.73
2022-07-25T00:29:07.658Z,11.65
2022-07-25T00:31:34.977Z,13.05
2022-07-25T00:34:02.435Z,12.48
2022-07-25T00:36:29.364Z,13.20
2022-07-25T00:38:56.208Z,12.35
2022-07-25T00:41:23.044Z,19.13
2022-07-25T00:43:52.639Z,13.40
2022-07-25T00:46:19.643Z,12.77
2022-07-25T00:48:47.745Z,13.75
2022-07-25T00:51:16.458Z,13.50
2022-07-25T00:53:44.255Z,12.55
2022-07-25T00:56:11.448Z,11.60
2022-07-25T00:58:38.263Z,11.45
2022-07-25T01:01:05.292Z,12.73
2022-07-25T01:03:32.279Z,13.02
2022-07-25T01:05:59.274Z,12.05
2022-07-25T01:08:26.216Z,11.80
2022-07-25T01:10:53.431Z,13.30
2022-07-25T01:13:20.911Z,13.10
2022-07-25T01:15:48.168Z,12.60
2022-07-25T01:18:15.137Z,12.90
2022-07-25T01:20:42.066Z,13.77
2022-07-25T01:23:09.049Z,11.63
2022-07-25T01:25:35.937Z,13.38
2022-07-25T01:28:02.948Z,13.98
2022-07-25T01:30:29.820Z,12.68
2022-07-25T01:32:56.740Z,12.65
2022-07-25T01:35:23.714Z,12.80
2022-07-25T01:37:50.503Z,18.05
2022-07-25T01:40:17.488Z,14.00
2022-07-25T01:42:44.922Z,13.55
2022-07-25T01:45:13.105Z,12.35
2022-07-25T01:47:40.804Z,12.52
2022-07-25T01:50:08.292Z,13.10
2022-07-25T01:52:36.802Z,13.38
2022-07-25T01:55:04.167Z,14.57
2022-07-25T01:57:33.131Z,14.63
2022-07-25T02:00:00.023Z,13.93
2022-07-25T02:02:27.142Z,14.40
2022-07-25T02:04:54.340Z,14.02
2022-07-25T02:07:21.238Z,13.85
2022-07-25T02:09:49.375Z,15.15
2022-07-25T02:12:19.019Z,14.37
2022-07-25T02:14:45.862Z,12.13
2022-07-25T02:17:12.788Z,14.50
2022-07-25T02:19:39.884Z,15.63
2022-07-25T02:22:06.933Z,14.23
2022-07-25T02:24:33.784Z,14.20
2022-07-25T02:27:00.638Z,14.13
2022-07-25T02:29:27.461Z,13.63
2022-07-25T02:31:54.277Z,13.02
2022-07-25T02:34:21.169Z,15.07
2022-07-25T02:36:48.046Z,14.18
2022-07-25T02:39:14.931Z,14.43
2022-07-25T02:41:42.080Z,14.27
2022-07-25T02:44:09.262Z,15.48
2022-07-25T02:46:37.014Z,16.30
2022-07-25T02:49:03.987Z,13.40
2022-07-25T02:51:30.891Z,14.38
2022-07-25T02:53:58.890Z,13.60
2022-07-25T02:56:29.829Z,16.52
2022-07-25T02:58:57.586Z,13.35
2022-07-25T03:01:24.649Z,13.07
2022-07-25T03:03:51.694Z,13.73
2022-07-25T03:06:18.736Z,16.40
2022-07-25T03:08:45.539Z,12.88
2022-07-25T03:11:13.595Z,12.45
2022-07-25T03:13:40.454Z,12.32
2022-07-25T03:16:07.884Z,14.40
2022-07-25T03:18:34.750Z,13.15
2022-07-25T03:21:01.662Z,13.88
2022-07-25T03:23:28.617Z,12.98
2022-07-25T03:25:56.155Z,14.75
2022-07-25T03:28:24.734Z,13.27
2022-07-25T03:30:52.607Z,14.88
2022-07-25T03:33:19.457Z,14.40
2022-07-25T03:35:46.609Z,15.75
2022-07-25T03:38:13.461Z,14.63
2022-07-25T03:40:40.346Z,14.25
2022-07-25T03:43:07.269Z,13.55
2022-07-25T03:45:34.151Z,14.90
2022-07-25T03:48:01.127Z,14.52
2022-07-25T03:50:28.360Z,14.73
2022-07-25T03:52:55.207Z,12.60
2022-07-25T03:55:22.214Z,13.18
2022-07-25T03:57:49.028Z,14.05
2022-07-25T04:00:16.064Z,13.40
2022-07-25T04:02:43.048Z,13.60
2022-07-25T04:05:10.722Z,13.73
2022-07-25T04:07:38.212Z,14.43
2022-07-25T04:10:06.283Z,13.60
2022-07-25T04:12:33.439Z,16.08
2022-07-25T04:15:00.370Z,12.38
2022-07-25T04:17:27.224Z,13.77
2022-07-25T04:19:54.268Z,14.82
2022-07-25T04:22:22.515Z,13.00
2022-07-25T04:24:49.382Z,15.10
2022-07-25T04:27:16.753Z,12.73
2022-07-25T04:29:43.575Z,14.30
2022-07-25T04:32:10.474Z,14.40
2022-07-25T04:34:37.439Z,14.25
2022-07-25T04:37:04.240Z,14.20
2022-07-25T04:39:31.089Z,14.25
2022-07-25T04:41:57.908Z,13.02
2022-07-25T04:44:24.712Z,14.57
2022-07-25T04:46:51.565Z,15.10
2022-07-25T04:49:18.503Z,16.30
2022-07-25T04:51:46.187Z,13.50
2022-07-25T04:54:14.592Z,14.75
2022-07-25T04:56:41.517Z,15.02
2022-07-25T04:59:08.338Z,14.95
2022-07-25T05:01:35.548Z,14.32
2022-07-25T05:04:02.591Z,18.27
2022-07-25T05:06:29.601Z,16.10
2022-07-25T05:08:56.516Z,14.98
2022-07-25T05:11:23.350Z,14.45
2022-07-25T05:13:50.219Z,15.35
2022-07-25T05:16:17.177Z,13.65
2022-07-25T05:18:44.011Z,15.75
2022-07-25T05:21:12.465Z,14.25
2022-07-25T05:23:39.896Z,15.35
2022-07-25T05:26:06.927Z,14.93
2022-07-25T05:28:34.035Z,18.35
2022-07-25T05:31:01.125Z,18.13
2022-07-25T05:33:28.052Z,16.33
2022-07-25T05:35:54.892Z,15.27
2022-07-25T05:38:21.880Z,15.85
2022-07-25T05:40:49.256Z,16.70
2022-07-25T05:43:16.128Z,14.27
2022-07-25T05:45:43.267Z,18.55
2022-07-25T05:48:10.188Z,15.48
2022-07-25T05:50:37.555Z,16.88
2022-07-25T05:53:04.452Z,14.55
2022-07-25T05:55:31.320Z,15.07
2022-07-25T05:57:58.303Z,13.82
2022-07-25T06:00:25.470Z,15.07
2022-07-25T06:02:52.451Z,13.93
2022-07-25T06:05:19.420Z,14.18
2022-07-25T06:07:46.308Z,14.13
2022-07-25T06:10:13.142Z,14.68
2022-07-25T06:12:39.943Z,13.55
2022-07-25T06:15:07.955Z,13.15
2022-07-25T06:17:39.538Z,13.52
2022-07-25T06:20:07.539Z,12.90
2022-07-25T06:22:34.418Z,14.40
2022-07-25T06:25:04.555Z,14.73
2022-07-25T06:27:31.572Z,13.60
2022-07-25T06:29:58.495Z,14.10
2022-07-25T06:32:25.343Z,16.00
2022-07-25T06:34:52.187Z,13.60
2022-07-25T06:37:19.021Z,13.85
2022-07-25T06:39:46.287Z,13.55
2022-07-25T06:42:13.218Z,12.38
2022-07-25T06:44:40.508Z,13.15
2022-07-25T06:47:12.610Z,13.75
2022-07-25T06:49:42.992Z,14.43
2022-07-25T06:52:10.175Z,13.07
2022-07-25T06:54:37.114Z,14.88
2022-07-25T06:57:04.675Z,12.65
2022-07-25T06:59:31.686Z,15.57
2022-07-25T07:01:58.556Z,12.30
2022-07-25T07:04:25.403Z,13.05
2022-07-25T07:06:52.403Z,12.95
2022-07-25T07:09:19.242Z,11.57
2022-07-25T07:11:46.049Z,11.93
2022-07-25T07:14:12.862Z,14.05
2022-07-25T07:16:41.411Z,12.65
2022-07-25T07:19:11.061Z,13.93
2022-07-25T07:21:38.107Z,12.10
2022-07-25T07:24:05.253Z,11.50
2022-07-25T07:26:50.434Z,13.45
2022-07-25T07:29:17.267Z,12.60
2022-07-25T07:31:44.152Z,13.90
2022-07-25T07:34:11.484Z,13.10
2022-07-25T07:36:43.022Z,12.63
2022-07-25T07:39:09.958Z,11.35
2022-07-25T07:41:36.971Z,12.55
2022-07-25T07:44:05.055Z,12.73
2022-07-25T07:46:31.957Z,13.07
2022-07-25T07:48:58.931Z,11.57
2022-07-25T07:51:25.768Z,12.75
2022-07-25T07:54:11.357Z,12.05
2022-07-25T07:56:39.497Z,13.77
2022-07-25T07:59:06.512Z,12.80
2022-07-25T08:01:34.318Z,12.52
2022-07-25T08:04:01.166Z,12.38
2022-07-25T08:06:28.034Z,12.40
2022-07-25T08:08:55.265Z,11.57
2022-07-25T08:11:22.137Z,11.23
2022-07-25T08:13:48.943Z,11.10
2022-07-25T08:16:16.197Z,11.77
2022-07-25T08:18:43.092Z,11.90
2022-07-25T08:21:10.973Z,10.35
2022-07-25T08:23:40.801Z,11.43
2022-07-25T08:26:07.894Z,11.25
2022-07-25T08:28:34.694Z,12.35
2022-07-25T08:31:01.715Z,11.80
2022-07-25T08:33:29.094Z,10.98
2022-07-25T08:35:56.483Z,13.45
2022-07-25T08:38:25.401Z,10.57
2022-07-25T08:40:54.533Z,10.75
2022-07-25T08:43:22.305Z,11.52
2022-07-25T08:45:51.903Z,11.73
2022-07-25T08:48:20.831Z,11.35
2022-07-25T08:50:49.030Z,11.20
2022-07-25T08:53:35.319Z,11.75
2022-07-25T08:56:11.587Z,11.82
2022-07-25T08:58:39.862Z,11.43
2022-07-25T09:01:08.086Z,10.13
2022-07-25T09:03:36.371Z,10.40
2022-07-25T09:06:17.732Z,9.75
2022-07-25T09:08:59.544Z,10.38
2022-07-25T09:11:27.618Z,10.45
2022-07-25T09:14:07.452Z,10.30
2022-07-25T09:19:13.813Z,9.73
2022-07-25T09:21:42.877Z,9.05
2022-07-25T09:24:12.383Z,9.77
2022-07-25T09:26:48.538Z,9.30
2022-07-25T09:29:34.135Z,9.93
2022-07-25T09:32:02.592Z,14.32
2022-07-25T09:34:40.905Z,9.73
2022-07-25T09:37:09.476Z,8.90
2022-07-25T09:39:47.001Z,8.55
2022-07-25T09:42:32.248Z,8.75
2022-07-25T09:45:06.639Z,8.93
2022-07-25T09:47:36.876Z,8.65
2022-07-25T09:50:05.754Z,10.30
2022-07-25T09:52:33.818Z,8.15
2022-07-25T09:55:04.486Z,8.05
2022-07-25T09:57:31.337Z,7.82
2022-07-25T10:00:00.521Z,8.90
2022-07-25T10:02:39.668Z,9.07
2022-07-25T10:05:06.563Z,8.70
2022-07-25T10:07:38.722Z,8.07
2022-07-25T10:10:06.566Z,8.52
2022-07-25T10:12:33.679Z,7.55
2022-07-25T10:15:12.239Z,8.02
2022-07-25T10:17:40.909Z,9.43
2022-07-25T10:20:11.225Z,6.93
2022-07-25T10:22:56.302Z,8.85
2022-07-25T10:25:24.261Z,9.65
2022-07-25T10:27:59.962Z,7.30
2022-07-25T10:30:37.513Z,6.78
2022-07-25T10:33:17.761Z,6.60
2022-07-25T10:35:45.515Z,5.75
2022-07-25T10:38:12.893Z,9.25
2022-07-25T10:40:45.113Z,6.95
2022-07-25T10:43:15.237Z,6.85
2022-07-25T10:45:52.239Z,6.82
2022-07-25T10:48:30.610Z,7.55
2022-07-25T10:50:57.554Z,6.10
2022-07-25T10:53:31.716Z,7.82
2022-07-25T10:56:06.958Z,7.00
2022-07-25T10:58:43.499Z,5.72
2022-07-25T11:01:10.631Z,6.05
2022-07-25T11:03:37.528Z,5.63
2022-07-25T11:06:04.495Z,5.55
2022-07-25T11:08:35.848Z,5.22
2022-07-25T11:11:03.248Z,6.35
2022-07-25T11:13:30.257Z,6.35
2022-07-25T11:15:58.737Z,5.90
2022-07-25T11:18:37.784Z,6.30
2022-07-25T11:21:08.919Z,6.10
2022-07-25T11:23:36.472Z,6.80
2022-07-25T11:26:12.142Z,8.65
2022-07-25T11:28:44.744Z,4.63
2022-07-25T11:31:13.462Z,5.97
2022-07-25T11:33:43.570Z,5.13
2022-07-25T11:36:12.205Z,8.00
2022-07-25T11:38:40.528Z,4.35
2022-07-25T11:41:08.357Z,5.13
2022-07-25T11:43:35.256Z,4.55
2022-07-25T11:46:07.245Z,4.50
2022-07-25T11:48:37.173Z,7.20
2022-07-25T11:51:17.987Z,4.63
2022-07-25T11:53:48.250Z,4.47
2022-07-25T11:56:40.691Z,5.57
2022-07-25T11:59:04.738Z,5.25
2022-07-25T12:01:37.654Z,6.88
2022-07-25T12:04:20.227Z,5.05
2022-07-25T12:06:50.844Z,4.60
2022-07-25T12:11:48.303Z,5.20
2022-07-25T12:14:15.577Z,5.60
2022-07-25T12:16:42.859Z,5.78
2022-07-25T12:19:19.019Z,5.38
2022-07-25T12:21:46.146Z,5.85
2022-07-25T12:24:13.236Z,5.50
2022-07-25T12:26:40.098Z,5.40
2022-07-25T12:29:07.252Z,7.10
2022-07-25T12:31:34.674Z,5.35
2022-07-25T12:34:01.572Z,5.57
2022-07-25T12:36:28.578Z,6.07
2022-07-25T12:38:55.392Z,5.68
2022-07-25T12:41:23.644Z,5.50
2022-07-25T12:43:50.525Z,6.75
2022-07-25T12:46:17.581Z,5.50
2022-07-25T12:48:44.739Z,5.45
2022-07-25T12:51:11.621Z,8.32
2022-07-25T12:53:42.237Z,6.70
2022-07-25T12:56:09.738Z,6.35
2022-07-25T12:58:37.497Z,8.38
2022-07-25T13:01:05.887Z,6.32
2022-07-25T13:03:32.849Z,6.75
2022-07-25T13:05:59.758Z,6.00
2022-07-25T13:08:27.541Z,7.43
2022-07-25T13:10:54.486Z,5.85
2022-07-25T13:13:21.315Z,5.90
2022-07-25T13:15:48.135Z,6.88
2022-07-25T13:18:15.029Z,6.03
2022-07-25T13:20:41.913Z,6.05
2022-07-25T13:23:08.763Z,5.20
2022-07-25T13:25:36.505Z,6.85
2022-07-25T13:28:04.361Z,11.80
2022-07-25T13:30:38.003Z,5.30
2022-07-25T13:33:04.976Z,5.55
2022-07-25T13:35:38.552Z,5.85
2022-07-25T13:38:08.656Z,6.32
2022-07-25T13:40:37.410Z,5.95
2022-07-25T13:43:04.216Z,4.60
2022-07-25T13:45:31.439Z,5.90
2022-07-25T13:48:26.829Z,4.38
2022-07-25T13:50:45.260Z,6.25
2022-07-25T13:53:12.105Z,4.93
2022-07-25T13:55:39.386Z,6.30
2022-07-25T13:58:06.545Z,5.35
2022-07-25T14:00:33.615Z,5.07
2022-07-25T14:03:00.625Z,4.43
2022-07-25T14:05:27.666Z,4.32
2022-07-25T14:07:54.612Z,3.67
2022-07-25T14:10:21.436Z,4.28
2022-07-25T14:12:48.502Z,3.90
2022-07-25T14:15:15.381Z,4.82
2022-07-25T14:17:42.281Z,4.60
2022-07-25T14:20:09.921Z,3.83
2022-07-25T14:22:36.959Z,3.10
2022-07-25T14:25:04.165Z,5.22
2022-07-25T14:27:31.033Z,5.55
2022-07-25T14:29:57.846Z,6.00
2022-07-25T14:32:24.673Z,4.28
2022-07-25T14:34:52.643Z,4.32
2022-07-25T14:37:20.838Z,7.07
2022-07-25T14:39:48.300Z,6.72
2022-07-25T14:42:15.326Z,4.13
2022-07-25T14:44:42.186Z,5.25
2022-07-25T14:47:12.630Z,5.53
2022-07-25T14:49:41.106Z,3.28
2022-07-25T14:52:08.027Z,5.72
2022-07-25T14:54:34.946Z,5.93
2022-07-25T14:57:02.606Z,4.40
2022-07-25T14:59:29.570Z,5.65
2022-07-25T15:01:56.865Z,5.53
2022-07-25T15:04:25.256Z,5.18
2022-07-25T15:06:55.535Z,7.10
2022-07-25T15:09:22.577Z,4.68
2022-07-25T15:11:49.630Z,6.20
2022-07-25T15:14:16.511Z,5.10
2022-07-25T15:16:43.930Z,5.18
2022-07-25T15:19:16.423Z,6.20
2022-07-25T15:21:44.598Z,5.07
2022-07-25T15:24:11.833Z,5.00
2022-07-25T15:26:38.790Z,6.90
2022-07-25T15:29:10.451Z,6.97
2022-07-25T15:31:38.165Z,6.05
2022-07-25T15:34:05.112Z,7.10
2022-07-25T15:36:31.982Z,7.25
2022-07-25T15:38:58.814Z,12.38
2022-07-25T15:41:26.745Z,5.43
2022-07-25T15:43:53.772Z,7.15
2022-07-25T15:46:20.730Z,13.45
2022-07-25T15:48:48.996Z,7.05
2022-07-25T15:51:19.553Z,10.73
2022-07-25T15:53:46.551Z,19.80
2022-07-25T15:56:16.595Z,21.58
2022-07-25T15:58:44.181Z,8.88
2022-07-25T16:01:11.063Z,8.55
2022-07-25T16:03:38.395Z,7.30
2022-07-25T16:06:05.353Z,23.83
2022-07-25T16:08:32.465Z,16.50
2022-07-25T16:11:00.147Z,9.02
2022-07-25T16:13:27.225Z,12.35
2022-07-25T16:15:54.213Z,6.30
2022-07-25T16:18:21.330Z,19.33
2022-07-25T16:20:48.507Z,7.47
2022-07-25T16:23:15.636Z,8.13
2022-07-25T16:25:43.758Z,5.85
2022-07-25T16:28:10.712Z,6.53
2022-07-25T16:30:37.596Z,7.95
2022-07-25T16:33:04.510Z,6.53
2022-07-25T16:35:32.461Z,4.97
2022-07-25T16:37:59.346Z,5.72
2022-07-25T16:40:30.751Z,6.65
2022-07-25T16:42:58.845Z,7.63
2022-07-25T16:45:26.957Z,11.05
2022-07-25T16:47:54.931Z,5.32
2022-07-25T16:50:21.864Z,6.15
2022-07-25T16:52:48.770Z,4.72
2022-07-25T16:55:15.682Z,5.00
2022-07-25T16:57:42.624Z,5.28
2022-07-25T17:00:10.028Z,7.60
2022-07-25T17:02:36.950Z,6.35
2022-07-25T17:05:04.539Z,6.28
2022-07-25T17:09:59.291Z,6.40
2022-07-25T17:12:26.336Z,5.28
2022-07-25T17:14:53.911Z,5.63
2022-07-25T17:17:20.764Z,6.30
2022-07-25T17:19:47.706Z,7.28
2022-07-25T17:22:14.853Z,7.43
2022-07-25T17:24:42.041Z,6.95
2022-07-25T17:27:09.416Z,6.47
2022-07-25T17:29:36.824Z,6.43
2022-07-25T17:32:06.026Z,9.02
2022-07-25T17:34:33.118Z,5.95
2022-07-25T17:37:03.274Z,6.43
2022-07-25T17:39:30.854Z,6.07
2022-07-25T17:41:57.699Z,6.63
2022-07-25T17:44:25.145Z,6.35
2022-07-25T17:46:53.666Z,7.22
2022-07-25T17:49:21.769Z,6.40
2022-07-25T17:51:48.749Z,15.45
2022-07-25T17:54:15.753Z,5.82
2022-07-25T17:56:42.607Z,5.53
2022-07-25T17:59:09.411Z,7.93
2022-07-25T18:01:36.296Z,6.35
2022-07-25T18:04:03.920Z,8.15
2022-07-25T18:06:30.987Z,6.15
2022-07-25T18:08:58.183Z,6.47
2022-07-25T18:11:25.080Z,8.20
2022-07-25T18:13:51.880Z,11.88
2022-07-25T18:16:18.838Z,11.23
2022-07-25T18:18:45.740Z,8.57
2022-07-25T18:21:12.588Z,8.95
2022-07-25T18:23:39.421Z,11.32
2022-07-25T18:26:06.356Z,8.07
2022-07-25T18:28:33.199Z,8.13
2022-07-25T18:31:00.203Z,14.85
2022-07-25T18:33:27.136Z,12.98
2022-07-25T18:35:54.028Z,8.27
2022-07-25T18:38:20.841Z,8.05
2022-07-25T18:40:49.443Z,9.00
2022-07-25T18:43:16.408Z,7.88
2022-07-25T18:45:43.403Z,9.55
2022-07-25T18:48:11.583Z,10.45
2022-07-25T18:50:38.404Z,6.55
2022-07-25T18:53:05.429Z,8.38
2022-07-25T18:55:32.448Z,7.70
2022-07-25T18:57:59.291Z,7.97
2022-07-25T19:00:26.214Z,8.27
2022-07-25T19:02:53.005Z,7.80
2022-07-25T19:05:20.292Z,7.03
2022-07-25T19:07:47.264Z,8.13
2022-07-25T19:10:14.436Z,9.38
2022-07-25T19:12:41.428Z,7.50
2022-07-25T19:15:08.720Z,8.63
2022-07-25T19:17:37.105Z,9.98
2022-07-25T19:20:05.085Z,12.05
2022-07-25T19:22:31.959Z,6.45
2022-07-25T19:25:01.120Z,8.15
2022-07-25T19:27:28.891Z,7.20
2022-07-25T19:29:56.109Z,8.57
2022-07-25T19:32:23.082Z,7.90
2022-07-25T19:34:49.983Z,6.88
2022-07-25T19:37:16.933Z,13.07
2022-07-25T19:39:43.904Z,6.32
2022-07-25T19:42:12.327Z,9.73
2022-07-25T19:44:39.163Z,7.85
2022-07-25T19:47:09.860Z,9.00
2022-07-25T19:49:39.674Z,7.10
2022-07-25T19:52:07.657Z,7.53
2022-07-25T19:54:34.599Z,6.50
2022-07-25T19:57:02.314Z,6.45
2022-07-25T19:59:29.128Z,12.57
2022-07-25T20:01:55.975Z,6.93
2022-07-25T20:04:23.249Z,7.43
2022-07-25T20:06:50.779Z,8.27
2022-07-25T20:09:18.281Z,10.13
2022-07-25T20:11:45.437Z,10.55
2022-07-25T20:14:12.373Z,8.23
2022-07-25T20:16:40.004Z,8.55
2022-07-25T20:19:09.599Z,8.55
2022-07-25T20:21:38.249Z,8.45
2022-07-25T20:24:05.368Z,12.85
2022-07-25T20:26:32.294Z,10.07
2022-07-25T20:28:59.134Z,13.23
2022-07-25T20:31:26.132Z,8.80
2022-07-25T20:33:53.299Z,11.35
2022-07-25T20:36:20.437Z,12.40
2022-07-25T20:38:47.432Z,8.73
2022-07-25T20:41:15.370Z,12.77
2022-07-25T20:43:42.398Z,10.80
2022-07-25T20:46:09.601Z,13.50
2022-07-25T20:48:36.755Z,10.93
2022-07-25T20:51:03.971Z,15.93
2022-07-25T20:53:30.966Z,16.08
2022-07-25T20:55:58.455Z,14.55
2022-07-25T20:58:25.330Z,13.18
2022-07-25T21:00:52.337Z,15.00
2022-07-25T21:03:19.282Z,11.73
2022-07-25T21:05:46.277Z,11.85
2022-07-25T21:08:13.109Z,13.38
2022-07-25T21:10:39.923Z,16.23
2022-07-25T21:13:07.117Z,13.77
2022-07-25T21:15:34.821Z,13.48
2022-07-25T21:18:01.660Z,13.50
2022-07-25T21:20:28.681Z,14.75
2022-07-25T21:22:55.559Z,13.82
2022-07-25T21:25:22.632Z,15.77
2022-07-25T21:27:52.797Z,11.32
2022-07-25T21:30:19.731Z,15.68
2022-07-25T21:32:46.619Z,12.82
2022-07-25T21:35:13.470Z,10.48
2022-07-25T21:37:40.476Z,13.48
2022-07-25T21:40:08.132Z,13.27
2022-07-25T21:42:36.335Z,13.25
2022-07-25T21:45:03.550Z,11.70
2022-07-25T21:47:30.473Z,13.18
2022-07-25T21:50:24.150Z,14.40
2022-07-25T21:52:51.903Z,10.60
2022-07-25T21:55:18.795Z,13.20
2022-07-25T21:57:45.581Z,13.98
2022-07-25T22:00:13.371Z,14.75
2022-07-25T22:02:42.352Z,10.82
2022-07-25T22:05:10.005Z,11.13
2022-07-25T22:07:36.945Z,9.98
2022-07-25T22:10:07.633Z,10.48
2022-07-25T22:12:34.456Z,11.85
2022-07-25T22:15:01.329Z,12.82
2022-07-25T22:17:28.166Z,12.23
2022-07-25T22:20:15.021Z,11.98
2022-07-25T22:22:41.940Z,11.35
2022-07-25T22:25:09.320Z,12.50
2022-07-25T22:27:36.199Z,10.40
2022-07-25T22:30:04.050Z,10.27
2022-07-25T22:32:30.911Z,10.52
2022-07-25T22:34:57.749Z,13.85
2022-07-25T22:37:24.560Z,10.40
2022-07-25T22:39:51.918Z,13.48
2022-07-25T22:42:23.403Z,11.40
2022-07-25T22:44:50.229Z,13.07
2022-07-25T22:47:17.017Z,10.27
2022-07-25T22:49:43.799Z,11.07
2022-07-25T22:52:10.610Z,8.63
2022-07-25T22:54:37.562Z,10.20
2022-07-25T22:57:04.552Z,12.38
2022-07-25T22:59:31.421Z,11.00
2022-07-25T23:01:58.214Z,10.65
2022-07-25T23:04:25.068Z,11.73
2022-07-25T23:09:36.486Z,11.75
2022-07-25T23:12:05.307Z,11.85
2022-07-25T23:14:32.157Z,11.23
2022-07-25T23:17:17.021Z,13.18
2022-07-25T23:19:55.005Z,15.05
2022-07-25T23:22:23.763Z,9.68
2022-07-25T23:24:50.595Z,14.30
2022-07-25T23:27:17.786Z,15.50
2022-07-25T23:29:44.867Z,11.57
2022-07-25T23:32:11.802Z,13.07
2022-07-25T23:34:38.957Z,10.57
2022-07-25T23:37:05.846Z,11.82
2022-07-25T23:39:33.474Z,9.95
2022-07-25T23:42:00.788Z,12.50
2022-07-25T23:44:27.661Z,12.73
2022-07-25T23:46:56.741Z,14.70
2022-07-25T23:49:24.243Z,11.77
2022-07-25T23:51:51.162Z,14.15
2022-07-25T23:54:18.070Z,8.90
2022-07-25T23:56:44.870Z,11.68
2022-07-25T23:59:11.821Z,11.00
